sensor_id;sensor_type;location;lat;lon;timestamp;P1;durP1;ratioP1;P2;durP2;ratioP2
55706;SDS011;41608;45.384;20.394;2022-10-13T00:01:06;61.67;;;38.55;;
55706;SDS011;41608;45.384;20.394;2022-10-13T00:03:32;60.95;;;40.45;;
55706;SDS011;41608;45.384;20.394;2022-10-13T00:05:58;61.00;;;39.35;;
55706;SDS011;41608;45.384;20.394;2022-10-13T00:08:24;55.72;;;37.80;;
55706;SDS011;41608;45.384;20.394;2022-10-13T00:10:50;63.10;;;38.13;;
55706;SDS011;41608;45.384;20.394;2022-10-13T00:13:17;56.75;;;37.63;;
55706;SDS011;41608;45.384;20.394;2022-10-13T00:15:44;60.35;;;36.47;;
55706;SDS011;41608;45.384;20.394;2022-10-13T00:18:11;54.28;;;37.35;;
55706;SDS011;41608;45.384;20.394;2022-10-13T00:20:41;56.72;;;39.15;;
55706;SDS011;41608;45.384;20.394;2022-10-13T00:23:07;59.63;;;37.67;;
55706;SDS011;41608;45.384;20.394;2022-10-13T00:25:33;59.42;;;37.28;;
55706;SDS011;41608;45.384;20.394;2022-10-13T00:27:59;57.65;;;37.00;;
55706;SDS011;41608;45.384;20.394;2022-10-13T00:30:25;57.30;;;39.30;;
55706;SDS011;41608;45.384;20.394;2022-10-13T00:32:51;59.20;;;40.08;;
55706;SDS011;41608;45.384;20.394;2022-10-13T00:35:17;51.92;;;36.75;;
55706;SDS011;41608;45.384;20.394;2022-10-13T00:37:43;61.20;;;40.97;;
55706;SDS011;41608;45.384;20.394;2022-10-13T00:40:14;53.15;;;37.55;;
55706;SDS011;41608;45.384;20.394;2022-10-13T00:42:40;57.85;;;38.05;;
55706;SDS011;41608;45.384;20.394;2022-10-13T00:47:34;54.95;;;39.10;;
55706;SDS011;41608;45.384;20.394;2022-10-13T00:50:01;58.38;;;38.72;;
55706;SDS011;41608;45.384;20.394;2022-10-13T00:52:30;51.85;;;36.10;;
55706;SDS011;41608;45.384;20.394;2022-10-13T00:54:57;55.47;;;40.15;;
55706;SDS011;41608;45.384;20.394;2022-10-13T00:57:24;56.75;;;38.83;;
55706;SDS011;41608;45.384;20.394;2022-10-13T00:59:55;58.17;;;38.45;;
55706;SDS011;41608;45.384;20.394;2022-10-13T01:02:22;58.13;;;38.15;;
55706;SDS011;41608;45.384;20.394;2022-10-13T01:04:48;62.95;;;37.95;;
55706;SDS011;41608;45.384;20.394;2022-10-13T01:07:15;61.60;;;38.15;;
55706;SDS011;41608;45.384;20.394;2022-10-13T01:09:41;55.58;;;37.55;;
55706;SDS011;41608;45.384;20.394;2022-10-13T01:17:26;61.95;;;39.08;;
55706;SDS011;41608;45.384;20.394;2022-10-13T01:22:43;57.20;;;38.28;;
55706;SDS011;41608;45.384;20.394;2022-10-13T01:30:24;53.17;;;35.55;;
55706;SDS011;41608;45.384;20.394;2022-10-13T01:35:22;61.80;;;38.55;;
55706;SDS011;41608;45.384;20.394;2022-10-13T01:38:01;63.38;;;38.78;;
55706;SDS011;41608;45.384;20.394;2022-10-13T01:45:43;64.85;;;41.80;;
55706;SDS011;41608;45.384;20.394;2022-10-13T01:48:11;68.03;;;39.65;;
55706;SDS011;41608;45.384;20.394;2022-10-13T01:50:37;62.92;;;41.15;;
55706;SDS011;41608;45.384;20.394;2022-10-13T01:53:06;64.43;;;41.47;;
55706;SDS011;41608;45.384;20.394;2022-10-13T01:55:33;61.45;;;40.15;;
55706;SDS011;41608;45.384;20.394;2022-10-13T01:57:59;65.75;;;44.00;;
55706;SDS011;41608;45.384;20.394;2022-10-13T02:00:25;65.22;;;41.22;;
55706;SDS011;41608;45.384;20.394;2022-10-13T02:05:22;56.95;;;40.08;;
55706;SDS011;41608;45.384;20.394;2022-10-13T02:08:33;62.40;;;39.63;;
55706;SDS011;41608;45.384;20.394;2022-10-13T02:10:43;63.33;;;39.90;;
55706;SDS011;41608;45.384;20.394;2022-10-13T02:13:11;64.03;;;40.13;;
55706;SDS011;41608;45.384;20.394;2022-10-13T02:15:39;59.17;;;41.30;;
55706;SDS011;41608;45.384;20.394;2022-10-13T02:18:09;61.78;;;40.25;;
55706;SDS011;41608;45.384;20.394;2022-10-13T02:20:37;62.88;;;40.08;;
55706;SDS011;41608;45.384;20.394;2022-10-13T02:23:06;60.05;;;39.58;;
55706;SDS011;41608;45.384;20.394;2022-10-13T02:25:33;64.50;;;42.60;;
55706;SDS011;41608;45.384;20.394;2022-10-13T02:28:00;63.88;;;41.00;;
55706;SDS011;41608;45.384;20.394;2022-10-13T02:30:27;69.47;;;44.72;;
55706;SDS011;41608;45.384;20.394;2022-10-13T02:32:54;56.53;;;39.33;;
55706;SDS011;41608;45.384;20.394;2022-10-13T02:35:20;58.30;;;41.22;;
55706;SDS011;41608;45.384;20.394;2022-10-13T02:37:46;61.50;;;42.20;;
55706;SDS011;41608;45.384;20.394;2022-10-13T02:40:12;63.47;;;41.00;;
55706;SDS011;41608;45.384;20.394;2022-10-13T02:42:38;61.35;;;39.83;;
55706;SDS011;41608;45.384;20.394;2022-10-13T02:45:04;63.97;;;42.35;;
55706;SDS011;41608;45.384;20.394;2022-10-13T02:47:31;65.22;;;44.85;;
55706;SDS011;41608;45.384;20.394;2022-10-13T02:49:57;64.82;;;43.80;;
55706;SDS011;41608;45.384;20.394;2022-10-13T02:52:23;63.63;;;42.28;;
55706;SDS011;41608;45.384;20.394;2022-10-13T02:54:49;64.78;;;41.80;;
55706;SDS011;41608;45.384;20.394;2022-10-13T02:57:16;63.10;;;41.13;;
55706;SDS011;41608;45.384;20.394;2022-10-13T02:59:42;59.28;;;43.75;;
55706;SDS011;41608;45.384;20.394;2022-10-13T03:02:08;62.70;;;42.28;;
55706;SDS011;41608;45.384;20.394;2022-10-13T03:04:35;74.13;;;44.83;;
55706;SDS011;41608;45.384;20.394;2022-10-13T03:07:01;63.58;;;42.78;;
55706;SDS011;41608;45.384;20.394;2022-10-13T03:09:27;75.85;;;43.42;;
55706;SDS011;41608;45.384;20.394;2022-10-13T03:11:53;69.35;;;42.22;;
55706;SDS011;41608;45.384;20.394;2022-10-13T03:14:19;63.67;;;43.90;;
55706;SDS011;41608;45.384;20.394;2022-10-13T03:16:45;69.53;;;45.45;;
55706;SDS011;41608;45.384;20.394;2022-10-13T03:19:11;67.55;;;45.95;;
55706;SDS011;41608;45.384;20.394;2022-10-13T03:21:37;65.85;;;44.28;;
55706;SDS011;41608;45.384;20.394;2022-10-13T03:24:06;63.28;;;43.65;;
55706;SDS011;41608;45.384;20.394;2022-10-13T03:26:33;66.82;;;44.47;;
55706;SDS011;41608;45.384;20.394;2022-10-13T03:28:59;61.83;;;42.65;;
55706;SDS011;41608;45.384;20.394;2022-10-13T03:31:25;65.47;;;43.13;;
55706;SDS011;41608;45.384;20.394;2022-10-13T03:33:52;64.50;;;42.15;;
55706;SDS011;41608;45.384;20.394;2022-10-13T03:36:18;65.03;;;42.13;;
55706;SDS011;41608;45.384;20.394;2022-10-13T03:38:47;66.38;;;43.58;;
55706;SDS011;41608;45.384;20.394;2022-10-13T03:41:17;60.25;;;41.80;;
55706;SDS011;41608;45.384;20.394;2022-10-13T03:43:43;64.45;;;43.42;;
55706;SDS011;41608;45.384;20.394;2022-10-13T03:46:10;67.45;;;43.15;;
55706;SDS011;41608;45.384;20.394;2022-10-13T03:48:37;66.13;;;41.72;;
55706;SDS011;41608;45.384;20.394;2022-10-13T03:51:06;67.65;;;42.92;;
55706;SDS011;41608;45.384;20.394;2022-10-13T03:53:32;67.70;;;43.47;;
55706;SDS011;41608;45.384;20.394;2022-10-13T03:55:59;60.67;;;39.17;;
55706;SDS011;41608;45.384;20.394;2022-10-13T03:58:25;65.45;;;41.55;;
55706;SDS011;41608;45.384;20.394;2022-10-13T04:00:55;74.90;;;44.80;;
55706;SDS011;41608;45.384;20.394;2022-10-13T04:03:21;64.03;;;44.95;;
55706;SDS011;41608;45.384;20.394;2022-10-13T04:05:48;68.40;;;43.33;;
55706;SDS011;41608;45.384;20.394;2022-10-13T04:08:17;68.28;;;43.67;;
55706;SDS011;41608;45.384;20.394;2022-10-13T04:10:43;65.75;;;43.80;;
55706;SDS011;41608;45.384;20.394;2022-10-13T04:13:09;67.00;;;44.60;;
55706;SDS011;41608;45.384;20.394;2022-10-13T04:15:36;75.15;;;43.42;;
55706;SDS011;41608;45.384;20.394;2022-10-13T04:18:05;65.32;;;45.13;;
55706;SDS011;41608;45.384;20.394;2022-10-13T04:20:34;76.20;;;47.53;;
55706;SDS011;41608;45.384;20.394;2022-10-13T04:23:00;70.15;;;48.30;;
55706;SDS011;41608;45.384;20.394;2022-10-13T04:25:26;78.82;;;49.58;;
55706;SDS011;41608;45.384;20.394;2022-10-13T04:27:52;75.93;;;48.70;;
55706;SDS011;41608;45.384;20.394;2022-10-13T04:30:18;76.18;;;47.83;;
55706;SDS011;41608;45.384;20.394;2022-10-13T04:32:45;72.82;;;47.40;;
55706;SDS011;41608;45.384;20.394;2022-10-13T04:35:11;71.13;;;46.35;;
55706;SDS011;41608;45.384;20.394;2022-10-13T04:37:39;72.82;;;47.47;;
55706;SDS011;41608;45.384;20.394;2022-10-13T04:40:05;76.75;;;48.35;;
55706;SDS011;41608;45.384;20.394;2022-10-13T04:42:32;81.55;;;46.70;;
55706;SDS011;41608;45.384;20.394;2022-10-13T04:44:58;73.55;;;48.20;;
55706;SDS011;41608;45.384;20.394;2022-10-13T04:47:27;70.40;;;46.78;;
55706;SDS011;41608;45.384;20.394;2022-10-13T04:49:53;70.30;;;46.03;;
55706;SDS011;41608;45.384;20.394;2022-10-13T04:52:19;76.43;;;49.88;;
55706;SDS011;41608;45.384;20.394;2022-10-13T04:54:45;80.53;;;48.63;;
55706;SDS011;41608;45.384;20.394;2022-10-13T04:57:11;75.40;;;46.22;;
55706;SDS011;41608;45.384;20.394;2022-10-13T04:59:38;85.13;;;51.90;;
55706;SDS011;41608;45.384;20.394;2022-10-13T05:02:04;79.63;;;50.15;;
55706;SDS011;41608;45.384;20.394;2022-10-13T05:04:30;83.13;;;52.08;;
55706;SDS011;41608;45.384;20.394;2022-10-13T05:06:56;78.28;;;47.85;;
55706;SDS011;41608;45.384;20.394;2022-10-13T05:09:22;76.00;;;48.80;;
55706;SDS011;41608;45.384;20.394;2022-10-13T05:11:51;79.78;;;49.47;;
55706;SDS011;41608;45.384;20.394;2022-10-13T05:14:19;82.80;;;49.45;;
55706;SDS011;41608;45.384;20.394;2022-10-13T05:16:45;78.55;;;47.78;;
55706;SDS011;41608;45.384;20.394;2022-10-13T05:19:11;78.57;;;48.60;;
55706;SDS011;41608;45.384;20.394;2022-10-13T05:21:37;72.20;;;46.47;;
55706;SDS011;41608;45.384;20.394;2022-10-13T05:24:03;72.25;;;47.85;;
55706;SDS011;41608;45.384;20.394;2022-10-13T05:26:30;67.68;;;46.72;;
55706;SDS011;41608;45.384;20.394;2022-10-13T05:28:58;67.35;;;46.20;;
55706;SDS011;41608;45.384;20.394;2022-10-13T05:31:25;71.82;;;47.55;;
55706;SDS011;41608;45.384;20.394;2022-10-13T05:33:51;72.45;;;46.75;;
55706;SDS011;41608;45.384;20.394;2022-10-13T05:36:19;69.95;;;42.38;;
55706;SDS011;41608;45.384;20.394;2022-10-13T05:38:49;82.32;;;47.97;;
55706;SDS011;41608;45.384;20.394;2022-10-13T05:41:15;73.82;;;46.42;;
55706;SDS011;41608;45.384;20.394;2022-10-13T05:43:42;75.55;;;48.05;;
55706;SDS011;41608;45.384;20.394;2022-10-13T05:46:08;73.50;;;47.20;;
55706;SDS011;41608;45.384;20.394;2022-10-13T05:48:34;71.38;;;46.20;;
55706;SDS011;41608;45.384;20.394;2022-10-13T05:51:13;71.18;;;47.88;;
55706;SDS011;41608;45.384;20.394;2022-10-13T05:53:42;74.25;;;46.90;;
55706;SDS011;41608;45.384;20.394;2022-10-13T05:56:11;79.15;;;46.17;;
55706;SDS011;41608;45.384;20.394;2022-10-13T05:58:39;70.47;;;46.15;;
55706;SDS011;41608;45.384;20.394;2022-10-13T06:01:08;80.47;;;50.40;;
55706;SDS011;41608;45.384;20.394;2022-10-13T06:03:35;70.93;;;45.40;;
55706;SDS011;41608;45.384;20.394;2022-10-13T06:06:03;73.07;;;44.95;;
55706;SDS011;41608;45.384;20.394;2022-10-13T06:08:30;70.65;;;46.33;;
55706;SDS011;41608;45.384;20.394;2022-10-13T06:10:56;71.68;;;45.60;;
55706;SDS011;41608;45.384;20.394;2022-10-13T06:13:22;63.75;;;46.72;;
55706;SDS011;41608;45.384;20.394;2022-10-13T06:15:48;74.32;;;44.40;;
55706;SDS011;41608;45.384;20.394;2022-10-13T06:18:14;70.63;;;44.63;;
55706;SDS011;41608;45.384;20.394;2022-10-13T06:20:41;67.68;;;44.22;;
55706;SDS011;41608;45.384;20.394;2022-10-13T06:23:07;69.78;;;43.83;;
55706;SDS011;41608;45.384;20.394;2022-10-13T06:25:33;63.28;;;43.33;;
55706;SDS011;41608;45.384;20.394;2022-10-13T06:28:02;64.78;;;41.30;;
55706;SDS011;41608;45.384;20.394;2022-10-13T06:30:28;65.13;;;43.28;;
55706;SDS011;41608;45.384;20.394;2022-10-13T06:32:54;59.65;;;44.17;;
55706;SDS011;41608;45.384;20.394;2022-10-13T06:35:21;62.17;;;41.75;;
55706;SDS011;41608;45.384;20.394;2022-10-13T06:37:47;67.53;;;42.17;;
55706;SDS011;41608;45.384;20.394;2022-10-13T06:40:14;59.53;;;42.35;;
55706;SDS011;41608;45.384;20.394;2022-10-13T06:42:47;62.65;;;42.08;;
55706;SDS011;41608;45.384;20.394;2022-10-13T06:45:14;65.45;;;42.45;;
55706;SDS011;41608;45.384;20.394;2022-10-13T06:47:40;66.80;;;41.75;;
55706;SDS011;41608;45.384;20.394;2022-10-13T06:50:06;63.30;;;44.55;;
55706;SDS011;41608;45.384;20.394;2022-10-13T06:52:35;70.82;;;46.88;;
55706;SDS011;41608;45.384;20.394;2022-10-13T06:55:01;63.10;;;43.65;;
55706;SDS011;41608;45.384;20.394;2022-10-13T06:57:27;62.45;;;41.63;;
55706;SDS011;41608;45.384;20.394;2022-10-13T06:59:53;61.45;;;42.47;;
55706;SDS011;41608;45.384;20.394;2022-10-13T07:02:19;61.58;;;41.03;;
55706;SDS011;41608;45.384;20.394;2022-10-13T07:04:45;60.05;;;38.90;;
55706;SDS011;41608;45.384;20.394;2022-10-13T07:07:12;51.15;;;36.28;;
55706;SDS011;41608;45.384;20.394;2022-10-13T07:09:38;61.03;;;38.63;;
55706;SDS011;41608;45.384;20.394;2022-10-13T07:12:04;57.10;;;38.40;;
55706;SDS011;41608;45.384;20.394;2022-10-13T08:43:48;39.87;;;24.57;;
55706;SDS011;41608;45.384;20.394;2022-10-13T08:46:21;38.22;;;23.55;;
55706;SDS011;41608;45.384;20.394;2022-10-13T08:48:49;27.70;;;20.65;;
55706;SDS011;41608;45.384;20.394;2022-10-13T08:51:15;33.20;;;23.65;;
55706;SDS011;41608;45.384;20.394;2022-10-13T08:53:42;27.73;;;21.83;;
55706;SDS011;41608;45.384;20.394;2022-10-13T08:56:12;29.90;;;21.08;;
55706;SDS011;41608;45.384;20.394;2022-10-13T08:58:40;33.97;;;19.80;;
55706;SDS011;41608;45.384;20.394;2022-10-13T09:06:16;32.72;;;21.08;;
55706;SDS011;41608;45.384;20.394;2022-10-13T09:08:44;29.65;;;22.08;;
55706;SDS011;41608;45.384;20.394;2022-10-13T09:11:12;25.23;;;18.75;;
55706;SDS011;41608;45.384;20.394;2022-10-13T09:13:39;29.27;;;21.05;;
55706;SDS011;41608;45.384;20.394;2022-10-13T09:16:05;29.30;;;20.33;;
55706;SDS011;41608;45.384;20.394;2022-10-13T09:18:34;34.88;;;20.48;;
55706;SDS011;41608;45.384;20.394;2022-10-13T09:21:15;30.80;;;19.75;;
55706;SDS011;41608;45.384;20.394;2022-10-13T09:23:41;30.55;;;19.48;;
55706;SDS011;41608;45.384;20.394;2022-10-13T09:26:08;28.60;;;20.73;;
55706;SDS011;41608;45.384;20.394;2022-10-13T09:28:38;27.55;;;19.77;;
55706;SDS011;41608;45.384;20.394;2022-10-13T09:33:39;27.25;;;19.67;;
55706;SDS011;41608;45.384;20.394;2022-10-13T09:36:06;39.05;;;20.17;;
55706;SDS011;41608;45.384;20.394;2022-10-13T09:38:35;25.38;;;18.50;;
55706;SDS011;41608;45.384;20.394;2022-10-13T09:43:35;33.13;;;19.15;;
55706;SDS011;41608;45.384;20.394;2022-10-13T09:46:11;33.15;;;20.48;;
55706;SDS011;41608;45.384;20.394;2022-10-13T09:48:38;29.27;;;19.17;;
55706;SDS011;41608;45.384;20.394;2022-10-13T09:51:11;25.83;;;18.55;;
55706;SDS011;41608;45.384;20.394;2022-10-13T09:53:51;26.52;;;17.95;;
55706;SDS011;41608;45.384;20.394;2022-10-13T09:56:19;25.65;;;18.65;;
55706;SDS011;41608;45.384;20.394;2022-10-13T09:58:53;25.58;;;17.50;;
55706;SDS011;41608;45.384;20.394;2022-10-13T10:01:23;29.30;;;17.33;;
55706;SDS011;41608;45.384;20.394;2022-10-13T10:03:50;25.98;;;18.52;;
55706;SDS011;41608;45.384;20.394;2022-10-13T10:06:17;25.35;;;18.30;;
55706;SDS011;41608;45.384;20.394;2022-10-13T10:08:46;29.67;;;17.85;;
55706;SDS011;41608;45.384;20.394;2022-10-13T10:11:19;24.08;;;16.77;;
55706;SDS011;41608;45.384;20.394;2022-10-13T10:13:47;23.98;;;16.90;;
55706;SDS011;41608;45.384;20.394;2022-10-13T10:18:52;27.73;;;17.70;;
55706;SDS011;41608;45.384;20.394;2022-10-13T10:23:51;24.45;;;17.05;;
55706;SDS011;41608;45.384;20.394;2022-10-13T10:26:33;29.52;;;17.40;;
55706;SDS011;41608;45.384;20.394;2022-10-13T10:29:16;24.00;;;15.95;;
55706;SDS011;41608;45.384;20.394;2022-10-13T10:31:56;21.13;;;15.18;;
55706;SDS011;41608;45.384;20.394;2022-10-13T10:34:41;25.25;;;16.02;;
55706;SDS011;41608;45.384;20.394;2022-10-13T10:37:13;23.58;;;15.45;;
55706;SDS011;41608;45.384;20.394;2022-10-13T10:39:47;20.67;;;15.45;;
55706;SDS011;41608;45.384;20.394;2022-10-13T10:44:43;29.30;;;14.63;;
55706;SDS011;41608;45.384;20.394;2022-10-13T10:47:19;23.98;;;14.27;;
55706;SDS011;41608;45.384;20.394;2022-10-13T10:49:45;17.00;;;13.60;;
55706;SDS011;41608;45.384;20.394;2022-10-13T10:52:17;21.65;;;13.80;;
55706;SDS011;41608;45.384;20.394;2022-10-13T10:54:48;20.35;;;14.85;;
55706;SDS011;41608;45.384;20.394;2022-10-13T10:57:18;22.38;;;14.10;;
55706;SDS011;41608;45.384;20.394;2022-10-13T10:59:48;21.33;;;15.82;;
55706;SDS011;41608;45.384;20.394;2022-10-13T11:05:00;22.15;;;13.85;;
55706;SDS011;41608;45.384;20.394;2022-10-13T11:12:22;22.08;;;13.05;;
55706;SDS011;41608;45.384;20.394;2022-10-13T11:17:33;21.52;;;14.23;;
55706;SDS011;41608;45.384;20.394;2022-10-13T11:27:52;19.45;;;14.15;;
55706;SDS011;41608;45.384;20.394;2022-10-13T11:33:05;17.73;;;11.68;;
55706;SDS011;41608;45.384;20.394;2022-10-13T11:35:50;19.65;;;12.18;;
55706;SDS011;41608;45.384;20.394;2022-10-13T11:38:36;21.13;;;14.02;;
55706;SDS011;41608;45.384;20.394;2022-10-13T11:41:16;19.52;;;13.25;;
55706;SDS011;41608;45.384;20.394;2022-10-13T11:43:47;20.45;;;12.73;;
55706;SDS011;41608;45.384;20.394;2022-10-13T11:48:56;16.05;;;12.60;;
55706;SDS011;41608;45.384;20.394;2022-10-13T11:56:52;18.35;;;12.05;;
55706;SDS011;41608;45.384;20.394;2022-10-13T11:59:28;16.52;;;12.05;;
55706;SDS011;41608;45.384;20.394;2022-10-13T12:01:56;16.08;;;12.15;;
55706;SDS011;41608;45.384;20.394;2022-10-13T12:04:23;15.65;;;10.63;;
55706;SDS011;41608;45.384;20.394;2022-10-13T12:07:09;18.05;;;12.30;;
55706;SDS011;41608;45.384;20.394;2022-10-13T12:09:39;26.17;;;12.57;;
55706;SDS011;41608;45.384;20.394;2022-10-13T12:12:14;23.60;;;12.77;;
55706;SDS011;41608;45.384;20.394;2022-10-13T12:14:41;20.95;;;13.00;;
55706;SDS011;41608;45.384;20.394;2022-10-13T12:20:17;21.35;;;11.88;;
55706;SDS011;41608;45.384;20.394;2022-10-13T12:22:47;19.00;;;12.52;;
55706;SDS011;41608;45.384;20.394;2022-10-13T12:25:14;17.00;;;13.82;;
55706;SDS011;41608;45.384;20.394;2022-10-13T12:27:42;16.25;;;11.77;;
55706;SDS011;41608;45.384;20.394;2022-10-13T12:30:20;18.10;;;12.73;;
55706;SDS011;41608;45.384;20.394;2022-10-13T12:32:47;20.35;;;13.45;;
55706;SDS011;41608;45.384;20.394;2022-10-13T12:35:24;20.13;;;13.25;;
55706;SDS011;41608;45.384;20.394;2022-10-13T12:37:51;22.23;;;12.90;;
55706;SDS011;41608;45.384;20.394;2022-10-13T12:40:18;15.70;;;12.23;;
55706;SDS011;41608;45.384;20.394;2022-10-13T12:42:45;18.83;;;13.25;;
55706;SDS011;41608;45.384;20.394;2022-10-13T12:45:15;21.92;;;13.57;;
55706;SDS011;41608;45.384;20.394;2022-10-13T12:50:21;17.85;;;12.50;;
55706;SDS011;41608;45.384;20.394;2022-10-13T12:55:22;21.08;;;12.77;;
55706;SDS011;41608;45.384;20.394;2022-10-13T12:57:48;19.80;;;12.73;;
55706;SDS011;41608;45.384;20.394;2022-10-13T13:00:19;18.67;;;12.70;;
55706;SDS011;41608;45.384;20.394;2022-10-13T13:02:52;16.77;;;12.05;;
55706;SDS011;41608;45.384;20.394;2022-10-13T13:05:35;16.80;;;11.07;;
55706;SDS011;41608;45.384;20.394;2022-10-13T13:08:02;18.08;;;13.23;;
55706;SDS011;41608;45.384;20.394;2022-10-13T13:10:29;17.27;;;11.15;;
55706;SDS011;41608;45.384;20.394;2022-10-13T13:13:11;16.20;;;11.48;;
55706;SDS011;41608;45.384;20.394;2022-10-13T13:15:38;21.27;;;13.80;;
55706;SDS011;41608;45.384;20.394;2022-10-13T13:18:27;16.42;;;11.27;;
55706;SDS011;41608;45.384;20.394;2022-10-13T13:20:54;20.23;;;12.15;;
55706;SDS011;41608;45.384;20.394;2022-10-13T13:23:22;19.50;;;12.23;;
55706;SDS011;41608;45.384;20.394;2022-10-13T13:26:00;18.30;;;12.02;;
55706;SDS011;41608;45.384;20.394;2022-10-13T13:28:28;17.70;;;13.10;;
55706;SDS011;41608;45.384;20.394;2022-10-13T13:30:56;18.63;;;13.23;;
55706;SDS011;41608;45.384;20.394;2022-10-13T13:33:25;20.52;;;12.60;;
55706;SDS011;41608;45.384;20.394;2022-10-13T13:35:51;15.27;;;11.13;;
55706;SDS011;41608;45.384;20.394;2022-10-13T13:38:20;13.35;;;10.98;;
55706;SDS011;41608;45.384;20.394;2022-10-13T13:40:46;25.63;;;12.52;;
55706;SDS011;41608;45.384;20.394;2022-10-13T13:43:12;20.25;;;12.10;;
55706;SDS011;41608;45.384;20.394;2022-10-13T13:45:38;14.93;;;11.73;;
55706;SDS011;41608;45.384;20.394;2022-10-13T13:48:04;18.48;;;12.63;;
55706;SDS011;41608;45.384;20.394;2022-10-13T13:50:32;17.08;;;11.52;;
55706;SDS011;41608;45.384;20.394;2022-10-13T13:52:58;21.20;;;12.90;;
55706;SDS011;41608;45.384;20.394;2022-10-13T13:55:25;21.25;;;11.80;;
55706;SDS011;41608;45.384;20.394;2022-10-13T13:57:52;15.25;;;12.13;;
55706;SDS011;41608;45.384;20.394;2022-10-13T14:00:20;18.13;;;11.88;;
55706;SDS011;41608;45.384;20.394;2022-10-13T14:02:49;20.63;;;13.13;;
55706;SDS011;41608;45.384;20.394;2022-10-13T14:05:15;21.08;;;14.68;;
55706;SDS011;41608;45.384;20.394;2022-10-13T14:07:41;20.63;;;13.50;;
55706;SDS011;41608;45.384;20.394;2022-10-13T14:10:08;19.17;;;12.27;;
55706;SDS011;41608;45.384;20.394;2022-10-13T14:12:34;18.30;;;12.70;;
55706;SDS011;41608;45.384;20.394;2022-10-13T14:15:03;19.05;;;13.20;;
55706;SDS011;41608;45.384;20.394;2022-10-13T14:17:29;18.88;;;11.88;;
55706;SDS011;41608;45.384;20.394;2022-10-13T14:19:55;17.67;;;13.57;;
55706;SDS011;41608;45.384;20.394;2022-10-13T14:22:21;17.23;;;12.70;;
55706;SDS011;41608;45.384;20.394;2022-10-13T14:24:47;14.38;;;11.10;;
55706;SDS011;41608;45.384;20.394;2022-10-13T14:27:14;16.70;;;13.00;;
55706;SDS011;41608;45.384;20.394;2022-10-13T14:29:40;16.65;;;12.57;;
55706;SDS011;41608;45.384;20.394;2022-10-13T14:32:06;19.92;;;12.30;;
55706;SDS011;41608;45.384;20.394;2022-10-13T14:34:32;25.23;;;13.63;;
55706;SDS011;41608;45.384;20.394;2022-10-13T14:36:58;22.95;;;13.70;;
55706;SDS011;41608;45.384;20.394;2022-10-13T14:39:24;20.75;;;14.00;;
55706;SDS011;41608;45.384;20.394;2022-10-13T14:41:51;21.95;;;14.32;;
55706;SDS011;41608;45.384;20.394;2022-10-13T14:44:17;21.50;;;13.80;;
55706;SDS011;41608;45.384;20.394;2022-10-13T14:46:43;21.83;;;14.07;;
55706;SDS011;41608;45.384;20.394;2022-10-13T14:49:09;18.42;;;13.55;;
55706;SDS011;41608;45.384;20.394;2022-10-13T14:51:35;22.25;;;14.65;;
55706;SDS011;41608;45.384;20.394;2022-10-13T14:54:04;23.02;;;13.02;;
55706;SDS011;41608;45.384;20.394;2022-10-13T14:56:31;23.70;;;13.10;;
55706;SDS011;41608;45.384;20.394;2022-10-13T14:58:57;23.83;;;14.10;;
55706;SDS011;41608;45.384;20.394;2022-10-13T15:01:24;20.05;;;13.90;;
55706;SDS011;41608;45.384;20.394;2022-10-13T15:03:53;22.92;;;12.80;;
55706;SDS011;41608;45.384;20.394;2022-10-13T15:06:23;20.98;;;13.80;;
55706;SDS011;41608;45.384;20.394;2022-10-13T15:08:49;21.27;;;13.65;;
55706;SDS011;41608;45.384;20.394;2022-10-13T15:11:16;24.05;;;13.95;;
55706;SDS011;41608;45.384;20.394;2022-10-13T15:13:43;21.38;;;13.73;;
55706;SDS011;41608;45.384;20.394;2022-10-13T15:16:15;19.67;;;14.30;;
55706;SDS011;41608;45.384;20.394;2022-10-13T15:18:42;22.80;;;14.82;;
55706;SDS011;41608;45.384;20.394;2022-10-13T15:21:08;21.73;;;14.70;;
55706;SDS011;41608;45.384;20.394;2022-10-13T15:23:37;25.85;;;13.73;;
55706;SDS011;41608;45.384;20.394;2022-10-13T15:26:05;27.88;;;14.73;;
55706;SDS011;41608;45.384;20.394;2022-10-13T15:28:35;26.60;;;14.48;;
55706;SDS011;41608;45.384;20.394;2022-10-13T15:31:01;23.92;;;15.07;;
55706;SDS011;41608;45.384;20.394;2022-10-13T15:33:27;23.42;;;14.95;;
55706;SDS011;41608;45.384;20.394;2022-10-13T15:35:56;26.55;;;16.25;;
55706;SDS011;41608;45.384;20.394;2022-10-13T15:38:23;24.00;;;15.68;;
55706;SDS011;41608;45.384;20.394;2022-10-13T15:40:49;27.98;;;14.75;;
55706;SDS011;41608;45.384;20.394;2022-10-13T15:43:15;26.02;;;15.85;;
55706;SDS011;41608;45.384;20.394;2022-10-13T15:45:42;22.77;;;14.85;;
55706;SDS011;41608;45.384;20.394;2022-10-13T15:48:17;32.55;;;16.92;;
55706;SDS011;41608;45.384;20.394;2022-10-13T15:50:46;26.88;;;16.77;;
55706;SDS011;41608;45.384;20.394;2022-10-13T15:53:12;27.35;;;17.02;;
55706;SDS011;41608;45.384;20.394;2022-10-13T15:55:38;29.77;;;15.85;;
55706;SDS011;41608;45.384;20.394;2022-10-13T15:58:04;21.92;;;16.98;;
55706;SDS011;41608;45.384;20.394;2022-10-13T16:00:31;26.10;;;15.30;;
55706;SDS011;41608;45.384;20.394;2022-10-13T16:02:57;26.95;;;16.00;;
55706;SDS011;41608;45.384;20.394;2022-10-13T16:05:28;27.77;;;15.68;;
55706;SDS011;41608;45.384;20.394;2022-10-13T16:07:56;33.67;;;17.27;;
55706;SDS011;41608;45.384;20.394;2022-10-13T16:10:25;23.55;;;17.55;;
55706;SDS011;41608;45.384;20.394;2022-10-13T16:12:51;29.35;;;17.23;;
55706;SDS011;41608;45.384;20.394;2022-10-13T16:15:17;34.10;;;20.17;;
55706;SDS011;41608;45.384;20.394;2022-10-13T16:17:44;31.83;;;21.60;;
55706;SDS011;41608;45.384;20.394;2022-10-13T16:20:10;30.15;;;20.52;;
55706;SDS011;41608;45.384;20.394;2022-10-13T16:22:39;31.85;;;19.45;;
55706;SDS011;41608;45.384;20.394;2022-10-13T16:25:05;39.80;;;21.05;;
55706;SDS011;41608;45.384;20.394;2022-10-13T16:27:35;38.60;;;21.33;;
55706;SDS011;41608;45.384;20.394;2022-10-13T16:30:01;30.25;;;20.38;;
55706;SDS011;41608;45.384;20.394;2022-10-13T16:32:27;40.28;;;21.67;;
55706;SDS011;41608;45.384;20.394;2022-10-13T16:34:53;55.22;;;24.10;;
55706;SDS011;41608;45.384;20.394;2022-10-13T16:37:19;42.20;;;24.77;;
55706;SDS011;41608;45.384;20.394;2022-10-13T16:39:45;43.45;;;25.63;;
55706;SDS011;41608;45.384;20.394;2022-10-13T16:42:11;45.47;;;23.52;;
55706;SDS011;41608;45.384;20.394;2022-10-13T16:44:37;40.30;;;22.65;;
55706;SDS011;41608;45.384;20.394;2022-10-13T16:47:03;43.58;;;23.00;;
55706;SDS011;41608;45.384;20.394;2022-10-13T16:49:32;36.67;;;23.55;;
55706;SDS011;41608;45.384;20.394;2022-10-13T16:51:59;45.00;;;23.48;;
55706;SDS011;41608;45.384;20.394;2022-10-13T16:54:27;41.50;;;22.83;;
55706;SDS011;41608;45.384;20.394;2022-10-13T16:56:58;38.72;;;22.17;;
55706;SDS011;41608;45.384;20.394;2022-10-13T16:59:24;30.70;;;21.50;;
55706;SDS011;41608;45.384;20.394;2022-10-13T17:01:50;33.47;;;22.08;;
55706;SDS011;41608;45.384;20.394;2022-10-13T17:04:17;44.25;;;23.13;;